KIPL/IPL METAR and TAF weather

Enter ICAO airport designator
Station Type Date Time Source
KIPL METAR 2019/06/20 06:53 UTC NOAA

KIPL 200653Z AUTO 24008KT 10SM CLR 28/11 A2975 RMK AO2 SLP075 T02780111


Station Type Date Time Source
KIPL Decoded METAR 2019/06/20 06:53 UTC NOAA

Imperial, Imperial County Airport, CA, United States (KIPL) 32-50-03N 115-34-43W -15M
Jun 20, 2019 - 02:53 AM EDT / 2019.06.20 0653 UTC
Wind: from the WSW (240 degrees) at 9 MPH (8 KT):0
Visibility: 10 mile(s):0
Sky conditions: clear
Temperature: 82.0 F (27.8 C)
Dew Point: 52.0 F (11.1 C)
Relative Humidity: 35%
Pressure (altimeter): 29.75 in. Hg (1007 hPa)
ob: KIPL 200653Z AUTO 24008KT 10SM CLR 28/11 A2975 RMK AO2 SLP075 T02780111
cycle: 7

Station Type Date Time Source
KIPL TAF 2019/06/20 06:22 UTC NOAA

TAF KIPL 200520Z 2006/2106 20010KT P6SM SKC
FM200800 15008KT P6SM SKC
FM202000 18010G18KT P6SM SKC
FM202300 24015G22KT P6SM SKC

Example: see airport list